Time;durP1;ratioP1;P1;durP2;ratioP2;P2;SDS_P1;SDS_P2;PMS_P1;PMS_P2;Temp;Humidity;BMP_temperature;BMP_pressure;BME280_temperature;BME280_humidity;BME280_pressure;Samples;Min_cycle;Max_cycle;Signal;HPM_P1;HPM_P2
2022/10/23 00:00:43;;;;;;;13.95;5.35;;;9.70;99.90;;;;;;5074138;28;20094;-80
2022/10/23 00:03:09;;;;;;;12.90;5.78;;;9.60;99.90;;;;;;5071485;28;20048;-80
2022/10/23 00:05:39;;;;;;;9.18;5.50;;;9.60;99.90;;;;;;5055024;28;20040;-80
2022/10/23 00:08:06;;;;;;;17.17;5.82;;;9.70;99.90;;;;;;5104594;28;20515;-80
2022/10/23 00:10:34;;;;;;;11.07;5.78;;;9.70;99.90;;;;;;5099966;28;20480;-80
2022/10/23 00:13:01;;;;;;;10.98;6.00;;;9.60;99.90;;;;;;5124787;28;20075;-80
2022/10/23 00:15:28;;;;;;;11.05;6.10;;;9.60;99.90;;;;;;5091098;28;20411;-80
2022/10/23 00:17:54;;;;;;;10.95;5.70;;;9.60;99.90;;;;;;5091409;28;20055;-80
2022/10/23 00:20:21;;;;;;;10.25;5.85;;;9.60;99.90;;;;;;5107546;28;20072;-80
2022/10/23 00:22:48;;;;;;;15.68;6.10;;;9.60;99.90;;;;;;5091695;28;20036;-81
2022/10/23 00:25:15;;;;;;;13.13;6.18;;;9.60;99.90;;;;;;5107715;28;20094;-80
2022/10/23 00:27:42;;;;;;;13.32;6.47;;;9.60;99.90;;;;;;5091219;28;20054;-80
2022/10/23 00:30:09;;;;;;;17.77;7.13;;;9.60;99.90;;;;;;5091362;28;20036;-81
2022/10/23 00:32:36;;;;;;;17.88;6.35;;;9.60;99.90;;;;;;5082593;28;20048;-80
2022/10/23 00:35:04;;;;;;;15.15;6.97;;;9.60;99.90;;;;;;5124406;28;20037;-79
2022/10/23 00:37:30;;;;;;;12.85;6.22;;;9.60;99.90;;;;;;5090892;28;20204;-80
2022/10/23 00:39:57;;;;;;;15.50;6.80;;;9.60;99.90;;;;;;5108078;28;20500;-80
2022/10/23 00:42:26;;;;;;;17.70;6.78;;;9.60;99.90;;;;;;5087455;28;20032;-80
2022/10/23 00:44:53;;;;;;;14.02;6.32;;;9.60;99.90;;;;;;5055222;28;20079;-80
2022/10/23 00:47:19;;;;;;;10.40;6.40;;;9.50;99.90;;;;;;5103982;28;20075;-80
2022/10/23 00:49:46;;;;;;;11.70;5.70;;;9.50;99.90;;;;;;5071255;28;20037;-80
2022/10/23 00:52:13;;;;;;;16.85;7.20;;;9.50;99.90;;;;;;5079061;28;20048;-80
2022/10/23 00:54:42;;;;;;;12.52;6.50;;;9.50;99.90;;;;;;5070790;28;20501;-80
2022/10/23 00:57:12;;;;;;;16.15;6.93;;;9.50;99.90;;;;;;5104634;28;20084;-80
2022/10/23 00:59:39;;;;;;;13.57;5.88;;;9.50;99.90;;;;;;5087527;28;20413;-80
2022/10/23 01:02:06;;;;;;;12.73;5.85;;;9.50;99.90;;;;;;5107059;28;20040;-80
2022/10/23 01:04:36;;;;;;;11.85;6.22;;;9.50;99.90;;;;;;5107570;28;20419;-80
2022/10/23 01:07:02;;;;;;;18.58;6.10;;;10.10;99.90;;;;;;5108925;28;20036;-80
2022/10/23 01:09:46;;;;;;;15.93;6.75;;;9.50;99.90;;;;;;5127953;28;20066;-80
2022/10/23 01:12:15;;;;;;;14.57;6.35;;;9.50;99.90;;;;;;5128087;28;20083;-80
2022/10/23 01:14:47;;;;;;;16.73;6.57;;;9.50;99.90;;;;;;5127527;28;20544;-80
2022/10/23 01:17:38;;;;;;;16.27;6.70;;;9.40;99.90;;;;;;5110980;28;20407;-80
2022/10/23 01:20:23;;;;;;;12.98;6.85;;;9.50;99.90;;;;;;5111245;28;20265;-80
2022/10/23 01:23:05;;;;;;;13.68;6.75;;;9.40;99.90;;;;;;5111406;28;20079;-79
2022/10/23 01:25:50;;;;;;;15.35;6.50;;;9.40;99.90;;;;;;5113405;28;20551;-80
2022/10/23 01:28:56;;;;;;;21.02;6.50;;;9.40;99.90;;;;;;5111432;28;20044;-80
2022/10/23 01:31:58;;;;;;;18.25;6.30;;;9.40;99.90;;;;;;5127490;28;20040;-80
2022/10/23 01:34:49;;;;;;;19.92;6.30;;;9.40;99.90;;;;;;5097060;28;20058;-80
2022/10/23 01:37:23;;;;;;;13.18;5.82;;;9.40;99.90;;;;;;5110605;28;20036;-80
2022/10/23 01:39:54;;;;;;;13.73;6.57;;;9.40;99.90;;;;;;5111086;28;20494;-79
2022/10/23 01:42:45;;;;;;;11.10;6.32;;;9.30;99.90;;;;;;5127592;28;20040;-80
2022/10/23 01:45:27;;;;;;;11.63;5.65;;;9.30;99.90;;;;;;5110288;28;20036;-80
2022/10/23 01:47:55;;;;;;;12.82;5.93;;;9.30;99.90;;;;;;5110534;28;20036;-80
2022/10/23 01:50:25;;;;;;;11.40;6.53;;;9.30;99.90;;;;;;5110390;28;20040;-80
2022/10/23 01:52:52;;;;;;;15.32;6.50;;;9.30;99.90;;;;;;5127414;28;20496;-79
2022/10/23 01:55:20;;;;;;;12.73;6.47;;;9.30;99.90;;;;;;5072408;28;20039;-80
2022/10/23 01:57:48;;;;;;;13.77;6.15;;;9.20;99.90;;;;;;5073498;28;20041;-80
2022/10/23 02:00:17;;;;;;;13.90;6.50;;;9.30;99.90;;;;;;5073804;28;20040;-81
2022/10/23 02:02:45;;;;;;;11.75;6.30;;;9.20;99.90;;;;;;5089854;28;20123;-80
2022/10/23 02:05:16;;;;;;;11.20;6.10;;;9.20;99.90;;;;;;5092376;28;20421;-80
2022/10/23 02:07:43;;;;;;;14.70;5.82;;;9.20;99.90;;;;;;5110270;28;20101;-80
2022/10/23 02:10:11;;;;;;;9.35;5.72;;;9.20;99.90;;;;;;5093832;28;20423;-80
2022/10/23 02:12:43;;;;;;;14.70;6.57;;;9.20;99.90;;;;;;5110134;28;20090;-80
2022/10/23 02:15:25;;;;;;;14.63;5.88;;;9.20;99.90;;;;;;5110200;28;20051;-80
2022/10/23 02:18:01;;;;;;;14.77;6.50;;;9.20;99.90;;;;;;5126068;28;20135;-80
2022/10/23 02:20:54;;;;;;;11.90;5.40;;;9.10;99.90;;;;;;5126490;28;20040;-79
2022/10/23 02:23:32;;;;;;;12.43;5.53;;;9.10;99.90;;;;;;5110189;28;20113;-80
2022/10/23 02:26:04;;;;;;;13.55;6.68;;;9.10;99.90;;;;;;5126996;28;20044;-80
2022/10/23 02:28:39;;;;;;;10.73;5.50;;;9.10;99.90;;;;;;5109305;28;20519;-80
2022/10/23 02:31:09;;;;;;;9.85;5.70;;;9.10;99.90;;;;;;5110026;28;20058;-80
2022/10/23 02:33:36;;;;;;;12.52;5.72;;;9.10;99.90;;;;;;5109332;28;20519;-79
2022/10/23 02:36:03;;;;;;;15.32;6.28;;;9.10;99.90;;;;;;5089479;28;20119;-80
2022/10/23 02:38:39;;;;;;;10.75;5.80;;;9.10;99.90;;;;;;5092113;28;20040;-80
2022/10/23 02:41:26;;;;;;;10.90;5.65;;;9.10;99.90;;;;;;5109437;28;20499;-80
2022/10/23 02:44:27;;;;;;;11.23;5.75;;;9.10;99.90;;;;;;5109203;28;20047;-80
2022/10/23 02:47:00;;;;;;;11.48;6.10;;;9.10;99.90;;;;;;5108812;28;20500;-80
2022/10/23 02:49:41;;;;;;;11.23;6.07;;;9.10;99.90;;;;;;5109301;28;20101;-80
2022/10/23 02:52:12;;;;;;;12.52;6.15;;;9.10;99.90;;;;;;5109678;28;20049;-80
2022/10/23 02:55:09;;;;;;;11.48;5.78;;;9.00;99.90;;;;;;5108804;28;20500;-80
2022/10/23 02:57:55;;;;;;;14.00;6.22;;;9.00;99.90;;;;;;5109111;28;20036;-80
2022/10/23 03:00:22;;;;;;;12.48;6.32;;;9.00;99.90;;;;;;5109710;28;20043;-80
2022/10/23 03:02:56;;;;;;;12.82;6.13;;;9.00;99.90;;;;;;5109052;28;20044;-80
2022/10/23 03:05:33;;;;;;;12.57;5.90;;;9.00;99.90;;;;;;5109208;28;20108;-79
2022/10/23 03:08:02;;;;;;;11.88;5.25;;;9.10;99.90;;;;;;5108875;28;20062;-80
2022/10/23 03:10:29;;;;;;;12.38;5.93;;;9.10;99.90;;;;;;5108989;28;20784;-80
2022/10/23 03:12:56;;;;;;;12.57;5.82;;;9.10;99.90;;;;;;5125843;28;20127;-80
2022/10/23 03:15:23;;;;;;;10.77;6.07;;;9.10;99.90;;;;;;5108970;28;20055;-80
2022/10/23 03:17:49;;;;;;;10.30;5.80;;;9.20;99.90;;;;;;5065412;28;20056;-79
2022/10/23 03:20:17;;;;;;;12.63;5.72;;;9.20;99.90;;;;;;5105340;28;20056;-80
2022/10/23 03:22:43;;;;;;;9.55;5.72;;;9.20;99.90;;;;;;5088625;28;20059;-80
2022/10/23 03:25:10;;;;;;;13.45;5.78;;;9.20;99.90;;;;;;5105399;28;20040;-80
2022/10/23 03:27:37;;;;;;;10.25;5.57;;;9.20;99.90;;;;;;5060195;28;20075;-80
2022/10/23 03:30:04;;;;;;;10.02;5.47;;;9.30;99.90;;;;;;5091373;28;20051;-80
2022/10/23 03:32:31;;;;;;;9.80;4.97;;;9.20;99.90;;;;;;5109110;28;20408;-80
2022/10/23 03:34:58;;;;;;;8.93;5.05;;;9.20;99.90;;;;;;5108008;28;20040;-81
2022/10/23 03:37:25;;;;;;;10.52;5.40;;;9.20;99.90;;;;;;5108385;28;20109;-79
2022/10/23 03:39:52;;;;;;;14.18;5.40;;;9.30;99.90;;;;;;5090403;28;20036;-80
2022/10/23 03:42:18;;;;;;;11.68;5.30;;;9.40;99.90;;;;;;5092000;28;20032;-80
2022/10/23 03:44:45;;;;;;;12.77;5.53;;;9.40;99.90;;;;;;5091772;28;20072;-80
2022/10/23 03:47:12;;;;;;;11.50;5.47;;;9.50;99.90;;;;;;5125184;28;20055;-80
2022/10/23 03:49:38;;;;;;;10.70;5.20;;;9.60;99.90;;;;;;5108749;28;20127;-80
2022/10/23 03:52:06;;;;;;;9.32;5.53;;;9.60;99.90;;;;;;5125221;28;20131;-80
2022/10/23 03:54:35;;;;;;;9.85;5.43;;;9.60;99.90;;;;;;5108417;28;20089;-80
2022/10/23 03:57:02;;;;;;;14.25;5.20;;;9.70;99.90;;;;;;5108624;28;20407;-80
2022/10/23 03:59:30;;;;;;;10.80;5.50;;;9.70;99.90;;;;;;5108482;28;20037;-80
2022/10/23 04:01:57;;;;;;;13.07;5.57;;;9.70;99.90;;;;;;5108220;28;20043;-80
2022/10/23 04:04:24;;;;;;;16.08;4.97;;;9.70;99.90;;;;;;5091648;28;20404;-80
2022/10/23 04:06:50;;;;;;;14.88;5.30;;;9.70;99.90;;;;;;5090986;28;20044;-80
2022/10/23 04:09:17;;;;;;;10.13;5.00;;;9.60;99.90;;;;;;5108427;28;20136;-80
2022/10/23 04:11:43;;;;;;;12.20;5.70;;;9.60;99.90;;;;;;5124595;28;20039;-80
2022/10/23 04:14:12;;;;;;;8.90;4.88;;;9.50;99.90;;;;;;5108481;28;20080;-80
2022/10/23 04:16:39;;;;;;;12.02;5.35;;;9.50;99.90;;;;;;5107998;28;20044;-80
2022/10/23 04:19:06;;;;;;;9.57;4.45;;;9.50;99.90;;;;;;5107846;28;20510;-79
2022/10/23 04:21:33;;;;;;;10.13;5.40;;;9.50;99.90;;;;;;5074915;28;20109;-81
2022/10/23 04:24:02;;;;;;;12.80;6.13;;;9.50;99.90;;;;;;5071594;28;20574;-80
2022/10/23 04:26:29;;;;;;;13.07;6.18;;;9.50;99.90;;;;;;5087469;28;20110;-80
2022/10/23 04:28:56;;;;;;;17.38;6.38;;;9.50;99.90;;;;;;5087147;28;20047;-80
2022/10/23 04:31:23;;;;;;;9.32;5.40;;;9.50;99.90;;;;;;5098304;28;20503;-81
2022/10/23 04:33:49;;;;;;;10.82;5.93;;;9.60;99.90;;;;;;5124341;28;20678;-80
2022/10/23 04:36:16;;;;;;;11.73;6.05;;;9.60;99.90;;;;;;5107996;28;20075;-80
2022/10/23 04:38:43;;;;;;;16.05;5.88;;;9.50;99.90;;;;;;5108029;28;20122;-80
2022/10/23 04:41:09;;;;;;;12.73;6.95;;;9.50;99.90;;;;;;5089945;28;20384;-80
2022/10/23 04:43:36;;;;;;;9.18;5.30;;;9.50;99.90;;;;;;5078574;28;20112;-80
2022/10/23 04:46:03;;;;;;;12.68;6.38;;;9.50;99.90;;;;;;5111279;28;20059;-79
2022/10/23 04:48:30;;;;;;;11.13;5.97;;;9.50;99.90;;;;;;5094995;28;20040;-80
2022/10/23 04:50:59;;;;;;;10.95;6.30;;;9.50;99.90;;;;;;5128238;28;20039;-80
2022/10/23 04:53:27;;;;;;;11.50;5.47;;;9.50;99.90;;;;;;5094899;28;20561;-80
2022/10/23 04:55:55;;;;;;;15.43;5.80;;;9.50;99.90;;;;;;5094250;28;20396;-80
2022/10/23 04:58:23;;;;;;;12.90;5.93;;;9.50;99.90;;;;;;5095239;28;20123;-80
2022/10/23 05:00:51;;;;;;;14.57;6.00;;;9.40;99.90;;;;;;5111276;28;20048;-80
2022/10/23 05:03:21;;;;;;;14.68;5.88;;;9.40;99.90;;;;;;5111722;28;20039;-80
2022/10/23 05:05:51;;;;;;;12.07;5.85;;;9.40;99.90;;;;;;5111367;28;20036;-80
2022/10/23 05:08:17;;;;;;;13.18;6.50;;;9.40;99.90;;;;;;5111297;28;20044;-80
2022/10/23 05:10:46;;;;;;;19.88;6.38;;;9.40;99.90;;;;;;5128148;28;20048;-80
2022/10/23 05:13:12;;;;;;;15.63;6.20;;;9.50;99.90;;;;;;5111056;28;20149;-80
2022/10/23 05:15:39;;;;;;;18.15;6.18;;;9.50;99.90;;;;;;5094534;28;20888;-80
2022/10/23 05:18:25;;;;;;;14.30;6.20;;;9.60;99.90;;;;;;5110828;28;20060;-80
2022/10/23 05:20:57;;;;;;;14.85;6.88;;;9.60;99.90;;;;;;5110731;28;20044;-80
2022/10/23 05:23:25;;;;;;;11.52;6.53;;;9.60;99.90;;;;;;5110616;28;20036;-82
2022/10/23 05:25:52;;;;;;;19.58;7.00;;;9.60;99.90;;;;;;5094102;28;20076;-79
2022/10/23 05:28:18;;;;;;;15.70;7.07;;;9.60;99.90;;;;;;5094560;28;20500;-80
2022/10/23 05:30:45;;;;;;;13.88;6.95;;;9.60;99.90;;;;;;5128024;28;20054;-80
2022/10/23 05:33:13;;;;;;;13.40;6.60;;;9.70;99.90;;;;;;5127460;28;20091;-80
2022/10/23 05:35:41;;;;;;;13.90;7.00;;;9.70;99.90;;;;;;5110778;28;20127;-80
2022/10/23 05:38:08;;;;;;;13.40;6.78;;;9.60;99.90;;;;;;5110686;28;20127;-80
2022/10/23 05:40:35;;;;;;;15.15;6.72;;;9.70;99.90;;;;;;5110530;28;20484;-80
2022/10/23 05:43:01;;;;;;;13.27;6.78;;;9.70;99.90;;;;;;5093593;28;20067;-80
2022/10/23 05:45:28;;;;;;;24.02;6.32;;;9.60;99.90;;;;;;5110227;28;20096;-80
2022/10/23 05:47:55;;;;;;;14.45;6.05;;;9.60;99.90;;;;;;5110719;28;20134;-80
2022/10/23 05:50:22;;;;;;;11.75;6.43;;;9.50;99.90;;;;;;5093700;28;20036;-80
2022/10/23 05:52:48;;;;;;;13.18;5.43;;;9.50;99.90;;;;;;5093332;28;20048;-80
2022/10/23 05:55:15;;;;;;;10.30;5.38;;;9.50;99.90;;;;;;5093049;28;20035;-80
2022/10/23 05:57:43;;;;;;;12.63;6.10;;;9.50;99.90;;;;;;5127565;28;20519;-80
2022/10/23 06:00:10;;;;;;;14.80;6.43;;;9.50;99.90;;;;;;5110299;28;20127;-80
2022/10/23 06:02:37;;;;;;;11.70;6.25;;;9.50;99.90;;;;;;5093565;28;20043;-80
2022/10/23 06:05:04;;;;;;;10.35;5.88;;;9.50;99.90;;;;;;5079119;28;20405;-80
2022/10/23 06:07:31;;;;;;;17.27;5.75;;;9.50;99.90;;;;;;5109806;28;20055;-79
2022/10/23 06:09:57;;;;;;;15.02;6.35;;;9.60;99.90;;;;;;5109332;28;20031;-80
2022/10/23 06:12:24;;;;;;;11.10;5.55;;;9.60;99.90;;;;;;5126504;28;20152;-80
2022/10/23 06:14:51;;;;;;;11.98;6.00;;;9.60;99.90;;;;;;5126345;28;20040;-80
2022/10/23 06:17:17;;;;;;;11.90;5.60;;;9.50;99.90;;;;;;5125770;28;20105;-80
2022/10/23 06:19:45;;;;;;;19.42;6.38;;;9.50;99.90;;;;;;5093300;28;20069;-81
2022/10/23 06:22:11;;;;;;;12.27;5.85;;;9.50;99.90;;;;;;5108786;28;20036;-79
2022/10/23 06:24:38;;;;;;;15.15;5.80;;;9.50;99.90;;;;;;5126348;28;20040;-81
2022/10/23 06:27:05;;;;;;;15.35;5.68;;;9.50;99.90;;;;;;5071187;28;20044;-81
2022/10/23 06:29:31;;;;;;;12.35;5.50;;;9.50;99.90;;;;;;5089388;28;20412;-81
2022/10/23 06:31:58;;;;;;;15.32;5.50;;;9.50;99.90;;;;;;5072915;28;20045;-81
2022/10/23 06:34:25;;;;;;;11.82;5.68;;;9.50;99.90;;;;;;5115539;28;20496;-80
2022/10/23 06:36:51;;;;;;;12.65;5.80;;;9.50;99.90;;;;;;5109032;28;20036;-80
2022/10/23 06:39:20;;;;;;;11.15;5.57;;;9.60;99.90;;;;;;5091861;28;20518;-80
2022/10/23 06:41:46;;;;;;;13.93;5.80;;;9.60;99.90;;;;;;5076128;28;20528;-80
2022/10/23 06:44:13;;;;;;;11.88;5.65;;;9.60;99.90;;;;;;5125793;28;20063;-80
2022/10/23 06:46:40;;;;;;;10.48;5.75;;;9.60;99.90;;;;;;5073851;28;20040;-80
2022/10/23 06:49:06;;;;;;;11.40;5.22;;;9.60;99.90;;;;;;5125947;28;20039;-80
2022/10/23 06:51:36;;;;;;;19.67;5.80;;;9.70;99.90;;;;;;5073322;28;20036;-80
2022/10/23 06:54:02;;;;;;;12.82;6.05;;;9.70;99.90;;;;;;5109582;28;20407;-80
2022/10/23 06:56:29;;;;;;;10.63;5.53;;;9.80;99.90;;;;;;5109258;28;20043;-81
2022/10/23 06:58:56;;;;;;;13.80;6.85;;;9.80;99.90;;;;;;5088994;28;20037;-81
2022/10/23 07:01:22;;;;;;;16.23;6.80;;;9.80;99.90;;;;;;5094573;28;20047;-80
2022/10/23 07:03:49;;;;;;;11.98;5.32;;;9.80;99.90;;;;;;5113571;28;20075;-80
2022/10/23 07:06:17;;;;;;;12.20;5.53;;;9.90;99.90;;;;;;5075450;28;20040;-83
2022/10/23 07:08:44;;;;;;;13.40;6.05;;;10.00;99.90;;;;;;5126327;28;20047;-82
2022/10/23 07:11:12;;;;;;;13.30;5.53;;;9.90;99.90;;;;;;5093396;28;20041;-83
2022/10/23 07:13:39;;;;;;;13.75;6.45;;;10.00;99.90;;;;;;5075970;28;20040;-83
2022/10/23 07:16:13;;;;;;;14.93;6.15;;;10.00;99.90;;;;;;5091581;28;20044;-84
2022/10/23 07:18:40;;;;;;;14.38;5.40;;;10.00;99.90;;;;;;5106139;28;20512;-83
2022/10/23 07:21:07;;;;;;;13.45;5.97;;;10.10;99.90;;;;;;5072904;28;20038;-83
2022/10/23 07:23:34;;;;;;;11.88;5.25;;;10.10;99.90;;;;;;5072956;28;20032;-84
2022/10/23 07:26:06;;;;;;;12.75;5.40;;;10.20;99.90;;;;;;5056327;28;20051;-83
2022/10/23 07:28:34;;;;;;;10.45;6.22;;;10.20;99.90;;;;;;5089384;28;20047;-83
2022/10/23 07:31:01;;;;;;;18.73;5.65;;;10.20;99.90;;;;;;5105819;28;20048;-83
2022/10/23 07:33:28;;;;;;;14.77;5.57;;;10.30;99.90;;;;;;5124274;28;20462;-83
2022/10/23 07:35:54;;;;;;;11.43;6.00;;;10.30;99.90;;;;;;5092581;28;20044;-83
2022/10/23 07:38:21;;;;;;;13.85;6.15;;;10.30;99.90;;;;;;5076271;28;20484;-84
2022/10/23 07:40:48;;;;;;;10.75;5.70;;;10.30;99.90;;;;;;5109507;28;20087;-84
2022/10/23 07:43:17;;;;;;;12.35;4.85;;;10.40;99.90;;;;;;5109069;28;20046;-83
2022/10/23 07:45:47;;;;;;;14.02;5.25;;;10.40;99.90;;;;;;5092880;28;20097;-84
2022/10/23 07:48:14;;;;;;;14.23;5.25;;;10.40;99.90;;;;;;5092304;28;20127;-83
2022/10/23 07:50:41;;;;;;;11.52;5.35;;;10.40;99.90;;;;;;5109341;28;20048;-84
2022/10/23 07:53:16;;;;;;;13.23;5.18;;;10.50;99.90;;;;;;5125972;28;20047;-84
2022/10/23 07:56:00;;;;;;;9.98;5.32;;;10.50;99.90;;;;;;5109449;28;20377;-83
2022/10/23 07:58:28;;;;;;;10.05;4.70;;;10.60;99.90;;;;;;5108976;28;20484;-83
2022/10/23 08:00:58;;;;;;;8.60;4.70;;;10.60;99.90;;;;;;5092342;28;20040;-83
2022/10/23 08:03:25;;;;;;;10.60;4.95;;;10.60;99.90;;;;;;5108537;28;20765;-83
2022/10/23 08:05:53;;;;;;;10.15;5.03;;;10.60;99.90;;;;;;5109206;28;20128;-83
2022/10/23 08:08:23;;;;;;;10.65;5.40;;;10.70;99.90;;;;;;5109163;28;20134;-83
2022/10/23 08:10:52;;;;;;;12.02;4.97;;;10.70;99.90;;;;;;5126051;28;20047;-83
2022/10/23 08:13:19;;;;;;;11.27;5.07;;;10.80;99.90;;;;;;5125444;28;20523;-83
2022/10/23 08:15:48;;;;;;;10.40;4.47;;;10.80;99.90;;;;;;5093092;28;20082;-83
2022/10/23 08:18:15;;;;;;;12.55;5.07;;;10.80;99.90;;;;;;5112603;28;20048;-83
2022/10/23 08:20:44;;;;;;;12.20;5.43;;;10.90;99.90;;;;;;5130047;28;20497;-83
2022/10/23 08:23:13;;;;;;;11.38;5.10;;;11.00;99.90;;;;;;5112935;28;20423;-83
2022/10/23 08:25:40;;;;;;;9.80;4.47;;;11.00;99.90;;;;;;5096403;28;20134;-83
2022/10/23 08:28:08;;;;;;;8.48;4.40;;;11.10;99.90;;;;;;5079793;28;20197;-83
2022/10/23 08:30:35;;;;;;;10.43;4.22;;;11.10;99.90;;;;;;5095986;28;20443;-83
2022/10/23 08:33:06;;;;;;;11.02;4.90;;;11.20;99.90;;;;;;5112698;28;20039;-83
2022/10/23 08:35:37;;;;;;;12.10;4.50;;;11.20;99.90;;;;;;5095683;28;20033;-83
2022/10/23 08:38:05;;;;;;;12.90;4.82;;;11.30;99.90;;;;;;5113086;28;20127;-83
2022/10/23 08:40:34;;;;;;;14.02;4.95;;;11.40;99.90;;;;;;5096348;28;20036;-83
2022/10/23 08:43:10;;;;;;;11.80;4.40;;;11.40;99.90;;;;;;5112573;28;20399;-83
2022/10/23 08:45:53;;;;;;;10.45;4.72;;;11.50;99.90;;;;;;5129518;28;20487;-84
2022/10/23 08:48:37;;;;;;;10.82;4.38;;;11.60;99.90;;;;;;5112383;28;20044;-83
2022/10/23 08:51:24;;;;;;;10.38;4.38;;;11.70;99.90;;;;;;5129526;28;20052;-83
2022/10/23 08:53:56;;;;;;;13.00;5.20;;;11.70;99.90;;;;;;5112404;28;20056;-83
2022/10/23 08:56:31;;;;;;;10.80;4.45;;;11.80;99.90;;;;;;5111843;28;20102;-83
2022/10/23 08:59:18;;;;;;;10.07;5.00;;;11.90;99.90;;;;;;5129354;28;20036;-84
2022/10/23 09:01:58;;;;;;;15.40;5.18;;;11.90;99.90;;;;;;5111949;28;20441;-84
2022/10/23 09:04:25;;;;;;;10.85;5.13;;;12.00;99.90;;;;;;5128475;28;20521;-84
2022/10/23 09:07:16;;;;;;;9.25;4.95;;;12.10;99.90;;;;;;5095336;28;20036;-83
2022/10/23 09:10:14;;;;;;;14.57;5.43;;;12.20;99.90;;;;;;5111533;28;20043;-84
2022/10/23 09:12:41;;;;;;;9.68;5.03;;;12.20;99.90;;;;;;5111567;28;20479;-83
2022/10/23 09:15:30;;;;;;;12.38;5.45;;;12.30;99.90;;;;;;5110070;28;20040;-83
2022/10/23 09:18:03;;;;;;;11.63;5.57;;;12.40;99.90;;;;;;5127676;28;20048;-83
2022/10/23 09:20:34;;;;;;;13.13;5.47;;;12.40;99.90;;;;;;5128441;28;20048;-84
2022/10/23 09:23:11;;;;;;;13.30;5.30;;;12.50;99.90;;;;;;5111455;28;20033;-83
2022/10/23 09:25:40;;;;;;;12.35;6.05;;;12.60;99.90;;;;;;5111305;28;20118;-84
2022/10/23 09:28:19;;;;;;;9.73;4.82;;;12.60;99.90;;;;;;5127696;28;20047;-84
2022/10/23 09:30:46;;;;;;;10.88;5.68;;;12.70;99.90;;;;;;5111960;28;20568;-84
2022/10/23 09:33:21;;;;;;;12.73;4.40;;;12.80;99.90;;;;;;5094998;28;20411;-84
2022/10/23 09:35:52;;;;;;;9.63;4.57;;;12.90;99.90;;;;;;5111452;28;20048;-83
2022/10/23 09:38:34;;;;;;;9.60;4.72;;;12.90;99.90;;;;;;5091391;28;20040;-83
2022/10/23 09:41:21;;;;;;;8.38;4.78;;;13.00;99.90;;;;;;5093307;28;20080;-84
2022/10/23 09:44:06;;;;;;;9.23;4.93;;;13.10;99.90;;;;;;5105898;28;20400;-84
2022/10/23 09:46:44;;;;;;;7.55;3.97;;;13.20;99.90;;;;;;5097440;28;20094;-84
2022/10/23 09:49:18;;;;;;;14.60;4.75;;;13.20;99.90;;;;;;5101396;28;20044;-84
2022/10/23 09:52:00;;;;;;;12.63;4.78;;;13.30;99.90;;;;;;5110551;28;20475;-84
2022/10/23 09:54:30;;;;;;;9.60;4.50;;;13.40;99.90;;;;;;5110740;28;20073;-84
2022/10/23 09:57:21;;;;;;;12.40;4.82;;;13.50;99.90;;;;;;5123049;28;20112;-84
2022/10/23 10:00:05;;;;;;;11.15;4.40;;;13.60;99.90;;;;;;5110291;28;20036;-85
2022/10/23 10:02:35;;;;;;;16.42;5.50;;;13.70;99.90;;;;;;5110503;28;20047;-84
2022/10/23 10:05:23;;;;;;;10.10;4.32;;;13.70;99.90;;;;;;5109650;28;20408;-84
2022/10/23 10:08:13;;;;;;;9.30;4.30;;;13.70;99.90;;;;;;5107395;28;20044;-84
2022/10/23 10:11:06;;;;;;;9.05;4.28;;;13.80;99.90;;;;;;5110839;28;20148;-83
2022/10/23 10:13:35;;;;;;;8.65;4.25;;;13.80;99.90;;;;;;5110076;28;20043;-84
2022/10/23 10:16:10;;;;;;;14.35;4.60;;;13.90;99.90;;;;;;5110732;28;20504;-84
2022/10/23 10:18:47;;;;;;;7.97;4.25;;;13.90;99.90;;;;;;5109933;28;20048;-84
2022/10/23 10:21:38;;;;;;;8.48;4.60;;;13.90;99.90;;;;;;5109910;28;20044;-84
2022/10/23 10:24:17;;;;;;;7.78;4.13;;;14.00;99.90;;;;;;5110803;28;20044;-83
2022/10/23 10:26:50;;;;;;;13.10;4.40;;;14.00;99.90;;;;;;5109723;28;20097;-83
2022/10/23 10:29:42;;;;;;;9.90;4.28;;;14.10;99.90;;;;;;5110366;28;20042;-83
2022/10/23 10:32:31;;;;;;;10.30;3.90;;;14.10;99.90;;;;;;5110274;28;20040;-83
2022/10/23 10:35:33;;;;;;;7.32;4.05;;;14.10;99.90;;;;;;5109711;28;20044;-83
2022/10/23 10:38:09;;;;;;;12.82;3.90;;;14.30;99.90;;;;;;5127296;28;20059;-84
2022/10/23 10:41:02;;;;;;;10.38;4.10;;;14.30;99.90;;;;;;5109882;28;20039;-83
2022/10/23 10:43:32;;;;;;;6.82;3.95;;;14.40;99.90;;;;;;5089935;28;20058;-82
2022/10/23 10:46:35;;;;;;;11.35;3.90;;;14.50;99.90;;;;;;5109352;28;20126;-83
2022/10/23 10:49:14;;;;;;;7.70;3.88;;;14.60;99.90;;;;;;5110069;28;20028;-83
2022/10/23 10:52:21;;;;;;;8.57;4.10;;;14.70;99.90;;;;;;5100638;28;20087;-84
2022/10/23 10:55:16;;;;;;;8.70;3.65;;;14.70;99.90;;;;;;5109231;28;20079;-83
2022/10/23 10:57:47;;;;;;;10.20;4.32;;;14.80;99.90;;;;;;5109187;28;20040;-83
2022/10/23 11:00:20;;;;;;;7.70;3.72;;;14.80;99.90;;;;;;5109875;28;20085;-84
2022/10/23 11:02:50;;;;;;;8.05;4.03;;;14.90;99.90;;;;;;5109430;28;20093;-84
2022/10/23 11:05:23;;;;;;;11.65;3.72;;;14.90;99.90;;;;;;5109701;28;20503;-83
2022/10/23 11:08:06;;;;;;;8.38;3.63;;;15.00;99.90;;;;;;5103384;28;20066;-83
2022/10/23 11:10:34;;;;;;;8.73;3.78;;;15.00;99.90;;;;;;5109628;28;20047;-83
2022/10/23 11:13:01;;;;;;;9.93;3.85;;;15.00;99.90;;;;;;5108909;28;20075;-83
2022/10/23 11:15:37;;;;;;;7.95;4.13;;;15.00;99.90;;;;;;5109055;28;20071;-83
2022/10/23 11:18:14;;;;;;;8.30;4.22;;;15.00;99.90;;;;;;5123790;28;20052;-84
2022/10/23 11:20:54;;;;;;;6.10;4.05;;;15.10;99.90;;;;;;5108494;28;20071;-83
2022/10/23 11:23:41;;;;;;;9.88;3.88;;;15.10;99.90;;;;;;5109292;28;20480;-83
2022/10/23 11:26:18;;;;;;;8.68;3.97;;;15.20;99.90;;;;;;5109224;28;20109;-84
2022/10/23 11:29:20;;;;;;;8.23;3.45;;;15.20;99.90;;;;;;5125332;28;20081;-83
2022/10/23 11:32:01;;;;;;;6.13;3.55;;;15.20;99.90;;;;;;5094463;28;20129;-83
2022/10/23 11:34:48;;;;;;;6.65;3.80;;;15.20;99.90;;;;;;5111365;28;20511;-83
2022/10/23 11:37:19;;;;;;;11.45;3.53;;;15.20;99.90;;;;;;5108779;28;20571;-83
2022/10/23 11:40:02;;;;;;;6.47;3.42;;;15.20;99.90;;;;;;5105346;28;20411;-83
2022/10/23 11:42:37;;;;;;;9.38;4.00;;;15.20;99.90;;;;;;5106846;28;20032;-83
2022/10/23 11:45:24;;;;;;;9.50;3.83;;;15.30;99.90;;;;;;5089104;28;20044;-83
2022/10/23 11:48:22;;;;;;;8.20;3.50;;;15.20;99.90;;;;;;5105293;28;20043;-84
2022/10/23 11:50:52;;;;;;;9.82;4.03;;;15.30;99.90;;;;;;5087689;28;20048;-83
2022/10/23 11:53:31;;;;;;;9.48;3.83;;;15.30;99.90;;;;;;5117441;28;20453;-83
2022/10/23 11:56:11;;;;;;;7.97;4.18;;;15.30;99.90;;;;;;5108889;28;20076;-83
2022/10/23 11:58:44;;;;;;;6.25;3.50;;;15.30;99.90;;;;;;5108437;28;20036;-83
2022/10/23 12:01:23;;;;;;;10.10;3.70;;;15.30;99.90;;;;;;5125923;28;20036;-83
2022/10/23 12:04:11;;;;;;;9.60;3.92;;;15.30;99.90;;;;;;5125521;28;20450;-83
2022/10/23 12:06:41;;;;;;;7.53;3.22;;;15.30;99.90;;;;;;5108630;28;20377;-83
2022/10/23 12:09:25;;;;;;;7.95;3.15;;;15.30;99.90;;;;;;5108855;28;20040;-83
2022/10/23 12:12:15;;;;;;;8.23;3.33;;;15.30;99.90;;;;;;5125522;28;20488;-83
2022/10/23 12:14:45;;;;;;;8.90;3.75;;;15.20;99.90;;;;;;5122028;28;20040;-83
2022/10/23 12:17:28;;;;;;;8.70;3.22;;;15.30;99.90;;;;;;5108785;28;20039;-83
2022/10/23 12:20:06;;;;;;;6.68;2.97;;;15.20;99.90;;;;;;5125129;28;20120;-83
2022/10/23 12:23:21;;;;;;;6.82;3.25;;;15.20;99.90;;;;;;5108538;28;20071;-83
2022/10/23 12:26:13;;;;;;;7.72;3.00;;;15.30;99.90;;;;;;5108358;28;20040;-83
2022/10/23 12:29:09;;;;;;;7.60;2.95;;;15.30;99.90;;;;;;5108828;28;20044;-83
2022/10/23 12:31:43;;;;;;;;;;;15.30;99.90;;;;;;5126105;28;20048;-82
2022/10/23 12:34:47;;;;;;;10.20;3.05;;;15.30;99.90;;;;;;5125777;28;19916;-83
2022/10/23 12:37:41;;;;;;;10.25;3.10;;;15.30;99.90;;;;;;5105601;28;20049;-83
2022/10/23 12:40:09;;;;;;;7.25;3.30;;;15.40;99.90;;;;;;5088840;28;20044;-83
2022/10/23 12:42:36;;;;;;;7.55;3.25;;;15.40;99.90;;;;;;5088869;28;20036;-82
2022/10/23 12:45:15;;;;;;;9.07;3.47;;;15.40;99.90;;;;;;5116774;28;20031;-83
2022/10/23 12:47:44;;;;;;;4.40;2.55;;;15.40;99.90;;;;;;5108008;28;20048;-83
2022/10/23 12:50:23;;;;;;;6.30;2.95;;;15.40;99.90;;;;;;5108758;28;20048;-83
2022/10/23 12:53:15;;;;;;;5.65;2.92;;;15.50;99.90;;;;;;5108559;28;20028;-84
2022/10/23 12:55:57;;;;;;;6.72;2.90;;;15.60;99.90;;;;;;5107960;28;20504;-83
2022/10/23 12:58:29;;;;;;;7.25;2.80;;;15.60;99.90;;;;;;5106538;28;20393;-83
2022/10/23 13:00:59;;;;;;;6.85;2.60;;;15.60;99.90;;;;;;5123339;28;20403;-83
2022/10/23 13:03:28;;;;;;;6.65;3.05;;;15.70;99.90;;;;;;5109242;28;20530;-83
2022/10/23 13:06:03;;;;;;;5.65;2.80;;;15.70;99.90;;;;;;5111746;28;20126;-82
2022/10/23 13:08:48;;;;;;;5.80;2.60;;;15.70;99.90;;;;;;5095512;28;20051;-82
2022/10/23 13:11:18;;;;;;;7.63;2.65;;;15.70;99.90;;;;;;5111581;28;20044;-84
2022/10/23 13:13:47;;;;;;;11.38;3.13;;;15.70;99.90;;;;;;5127548;28;20051;-83
2022/10/23 13:16:16;;;;;;;7.10;2.80;;;15.70;99.90;;;;;;5111182;28;20051;-83